Terminal Aerodrome Forecast
Issued by NWS Detroit/Pontiac, MI

Home | Current Version | Previous Version | Text Only | Print | Product List | Glossary On
Versions: 1 2 3 4 5 6 7 8 9 10 11 12 13 14 15 16 17 18
202
FTUS43 KDTX 142320
TAFFNT
TAF
KFNT 142320Z 1500/1524 20005KT P6SM SCT250
     FM150200 22005KT P6SM OVC035
     FM151100 21008KT 5SM -SHSN OVC025
     FM151700 23012G25KT 1 1/2SM -SHSN OVC012
     FM152300 27012KT 5SM -SHSN OVC015=

USA.gov is the U.S. government's official web portal to all federal, state and local government web resources and services.